createdAt,value
2019-02-22T00:02:05.671Z,28.80
2019-02-22T00:04:06.603Z,29.97
2019-02-22T00:06:07.438Z,26.77
2019-02-22T00:08:08.280Z,23.73
2019-02-22T00:10:09.147Z,28.57
2019-02-22T00:12:10.027Z,27.00
2019-02-22T00:14:10.851Z,24.50
2019-02-22T00:16:11.680Z,23.90
2019-02-22T00:18:12.525Z,25.37
2019-02-22T00:20:13.354Z,26.17
2019-02-22T00:22:14.188Z,28.80
2019-02-22T00:24:15.044Z,27.00
2019-02-22T00:26:15.874Z,25.90
2019-02-22T00:28:16.728Z,28.23
2019-02-22T00:30:17.569Z,25.90
2019-02-22T00:32:18.420Z,24.33
2019-02-22T00:34:19.255Z,26.33
2019-02-22T00:36:20.523Z,27.67
2019-02-22T00:38:21.467Z,28.10
2019-02-22T00:40:22.318Z,30.13
2019-02-22T00:42:23.168Z,26.77
2019-02-22T00:44:24.001Z,27.80
2019-02-22T00:46:24.846Z,30.07
2019-02-22T00:48:25.698Z,27.17
2019-02-22T00:50:26.536Z,32.07
2019-02-22T00:52:27.541Z,28.40
2019-02-22T00:54:28.462Z,29.60
2019-02-22T00:56:29.500Z,25.70
2019-02-22T00:58:30.401Z,26.27
2019-02-22T01:00:31.304Z,25.70
2019-02-22T01:02:32.671Z,24.53
2019-02-22T01:04:33.532Z,25.97
2019-02-22T01:06:34.649Z,26.10
2019-02-22T01:08:35.497Z,28.80
2019-02-22T01:10:36.745Z,28.30
2019-02-22T01:12:37.609Z,28.63
2019-02-22T01:14:38.461Z,34.17
2019-02-22T01:16:39.320Z,32.93
2019-02-22T01:18:40.158Z,30.33
2019-02-22T01:20:41.010Z,33.60
2019-02-22T01:22:41.861Z,30.90
2019-02-22T01:24:42.710Z,32.23
2019-02-22T01:26:43.560Z,27.53
2019-02-22T01:28:44.423Z,29.47
2019-02-22T01:30:45.293Z,27.63
2019-02-22T01:32:46.403Z,27.03
2019-02-22T01:34:47.239Z,30.60
2019-02-22T01:36:48.111Z,26.60
2019-02-22T01:38:49.025Z,28.37
2019-02-22T01:40:49.853Z,27.87
2019-02-22T01:42:50.720Z,25.73
2019-02-22T01:44:51.624Z,31.83
2019-02-22T01:46:52.463Z,27.70
2019-02-22T01:48:53.605Z,31.53
2019-02-22T01:50:54.719Z,27.73
2019-02-22T01:52:55.578Z,27.40
2019-02-22T01:54:56.416Z,29.60
2019-02-22T01:56:57.582Z,29.00
2019-02-22T01:58:58.428Z,30.13
2019-02-22T02:00:59.603Z,27.97
2019-02-22T02:03:00.461Z,27.07
2019-02-22T02:05:01.564Z,28.93
2019-02-22T02:07:02.400Z,26.67
2019-02-22T02:09:04.471Z,29.63
2019-02-22T02:11:05.352Z,27.97
2019-02-22T02:13:06.190Z,29.83
2019-02-22T02:15:07.028Z,35.33
2019-02-22T02:17:07.949Z,27.20
2019-02-22T02:19:08.808Z,30.00
2019-02-22T02:21:09.651Z,28.57
2019-02-22T02:23:10.497Z,31.10
2019-02-22T02:25:11.345Z,27.83
2019-02-22T02:27:12.177Z,28.23
2019-02-22T02:29:13.340Z,31.07
2019-02-22T02:31:14.473Z,28.77
2019-02-22T02:33:15.304Z,31.93
2019-02-22T02:35:16.147Z,31.00
2019-02-22T02:37:16.989Z,32.77
2019-02-22T02:39:17.841Z,33.23
2019-02-22T02:41:18.683Z,31.83
2019-02-22T02:43:19.536Z,31.23
2019-02-22T02:45:20.400Z,34.80
2019-02-22T02:47:21.224Z,32.93
2019-02-22T02:49:22.060Z,29.17
2019-02-22T02:51:23.219Z,28.77
2019-02-22T02:53:24.045Z,29.47
2019-02-22T02:55:24.909Z,31.67
2019-02-22T02:57:25.765Z,30.13
2019-02-22T02:59:26.949Z,26.00
2019-02-22T03:01:28.227Z,30.00
2019-02-22T03:03:29.081Z,27.13
2019-02-22T03:06:01.630Z,29.93
2019-02-22T03:08:02.488Z,30.03
2019-02-22T03:10:03.425Z,29.07
2019-02-22T03:12:04.254Z,29.60
2019-02-22T03:14:05.481Z,30.27
2019-02-22T03:16:06.289Z,31.03
2019-02-22T03:18:07.354Z,31.30
2019-02-22T03:20:08.218Z,30.27
2019-02-22T03:22:09.045Z,31.83
2019-02-22T03:24:09.891Z,29.67
2019-02-22T03:26:10.716Z,29.07
2019-02-22T03:28:11.541Z,29.03
2019-02-22T03:30:12.722Z,32.37
2019-02-22T03:32:13.597Z,32.37
2019-02-22T03:34:14.422Z,37.10
2019-02-22T03:36:15.541Z,33.03
2019-02-22T03:38:16.381Z,31.43
2019-02-22T03:40:17.243Z,33.33
2019-02-22T03:42:18.087Z,31.03
2019-02-22T03:44:18.922Z,32.67
2019-02-22T03:46:19.789Z,34.33
2019-02-22T03:48:20.628Z,35.10
2019-02-22T03:50:22.033Z,34.30
2019-02-22T03:52:40.753Z,36.73
2019-02-22T03:54:41.597Z,35.00
2019-02-22T03:56:42.446Z,36.57
2019-02-22T03:58:43.280Z,34.37
2019-02-22T04:00:44.140Z,38.07
2019-02-22T04:02:44.978Z,35.93
2019-02-22T04:04:45.809Z,36.20
2019-02-22T04:06:46.665Z,35.40
2019-02-22T04:08:47.497Z,35.87
2019-02-22T04:10:48.345Z,37.97
2019-02-22T04:12:49.182Z,41.97
2019-02-22T04:14:50.552Z,43.27
2019-02-22T04:16:51.408Z,38.73
2019-02-22T04:18:52.240Z,41.10
2019-02-22T04:20:53.196Z,42.57
2019-02-22T04:22:54.128Z,39.43
2019-02-22T04:24:54.972Z,41.93
2019-02-22T04:26:56.137Z,41.43
2019-02-22T04:28:56.978Z,43.73
2019-02-22T04:30:57.820Z,47.87
2019-02-22T04:32:58.664Z,46.80
2019-02-22T04:34:59.508Z,47.87
2019-02-22T04:37:00.348Z,48.37
2019-02-22T04:39:01.172Z,43.33
2019-02-22T04:41:02.044Z,49.17
2019-02-22T04:43:02.864Z,47.70
2019-02-22T04:45:03.705Z,52.10
2019-02-22T04:47:04.563Z,49.30
2019-02-22T04:49:05.393Z,48.60
2019-02-22T04:51:06.233Z,48.90
2019-02-22T04:53:07.088Z,45.97
2019-02-22T04:55:07.926Z,47.37
2019-02-22T04:57:08.779Z,47.20
2019-02-22T04:59:09.636Z,46.40
2019-02-22T05:01:10.925Z,52.03
2019-02-22T05:03:11.768Z,52.90
2019-02-22T05:05:12.606Z,57.00
2019-02-22T05:07:13.476Z,49.73
2019-02-22T05:09:14.305Z,50.90
2019-02-22T05:11:15.165Z,53.10
2019-02-22T05:13:16.024Z,50.40
2019-02-22T05:15:17.241Z,52.50
2019-02-22T05:17:18.326Z,49.90
2019-02-22T05:19:19.180Z,54.10
2019-02-22T05:21:20.025Z,54.13
2019-02-22T05:23:20.853Z,52.07
2019-02-22T05:25:21.718Z,50.77
2019-02-22T05:27:22.876Z,53.73
2019-02-22T05:29:23.708Z,51.37
2019-02-22T05:31:24.549Z,57.67
2019-02-22T05:33:25.507Z,52.27
2019-02-22T05:35:26.355Z,53.30
2019-02-22T05:37:27.538Z,54.33
2019-02-22T05:39:28.385Z,52.97
2019-02-22T05:41:29.209Z,61.80
2019-02-22T05:43:30.053Z,55.60
2019-02-22T05:45:30.919Z,60.03
2019-02-22T05:47:31.745Z,54.47
2019-02-22T05:49:32.584Z,57.60
2019-02-22T05:51:33.440Z,59.10
2019-02-22T05:53:34.262Z,64.40
2019-02-22T05:55:35.113Z,59.83
2019-02-22T05:57:35.961Z,65.97
2019-02-22T05:59:36.810Z,55.00
2019-02-22T06:01:37.633Z,59.70
2019-02-22T06:03:38.477Z,57.03
2019-02-22T06:05:39.329Z,68.33
2019-02-22T06:07:40.165Z,59.13
2019-02-22T06:09:41.726Z,60.23
2019-02-22T06:11:42.622Z,65.83
2019-02-22T06:13:43.465Z,60.10
2019-02-22T06:15:44.326Z,64.87
2019-02-22T06:17:45.157Z,63.10
2019-02-22T06:19:46.340Z,57.23
2019-02-22T06:21:47.498Z,67.87
2019-02-22T06:23:48.425Z,67.93
2019-02-22T06:25:49.392Z,67.23
2019-02-22T06:27:50.354Z,61.40
2019-02-22T06:29:51.199Z,71.63
2019-02-22T06:31:52.048Z,61.50
2019-02-22T06:33:52.886Z,62.87
2019-02-22T06:35:54.063Z,78.10
2019-02-22T06:37:55.433Z,67.37
2019-02-22T06:39:56.268Z,64.40
2019-02-22T06:41:57.492Z,69.53
2019-02-22T06:43:58.338Z,68.50
2019-02-22T06:45:59.198Z,65.63
2019-02-22T06:48:00.464Z,61.17
2019-02-22T06:50:01.306Z,67.10
2019-02-22T06:52:02.189Z,63.30
2019-02-22T06:54:03.100Z,61.80
2019-02-22T06:56:03.949Z,68.47
2019-02-22T06:58:04.773Z,68.70
2019-02-22T07:00:05.601Z,60.10
2019-02-22T07:02:06.450Z,64.70
2019-02-22T07:04:07.540Z,65.13
2019-02-22T07:06:08.414Z,66.30
2019-02-22T07:08:09.521Z,69.63
2019-02-22T07:10:10.367Z,58.63
2019-02-22T07:12:17.933Z,72.40
2019-02-22T07:14:18.784Z,63.67
2019-02-22T07:16:19.907Z,76.53
2019-02-22T07:18:20.766Z,62.20
2019-02-22T07:20:21.596Z,68.83
2019-02-22T07:22:22.741Z,76.57
2019-02-22T07:24:23.603Z,69.10
2019-02-22T07:26:24.433Z,73.70
2019-02-22T07:28:25.270Z,61.70
2019-02-22T07:30:26.125Z,68.70
2019-02-22T07:32:26.964Z,68.43
2019-02-22T07:34:28.145Z,63.60
2019-02-22T07:36:28.986Z,67.67
2019-02-22T07:38:29.848Z,69.17
2019-02-22T07:40:30.706Z,59.63
2019-02-22T07:42:31.545Z,65.50
2019-02-22T07:44:32.377Z,60.67
2019-02-22T07:46:33.246Z,65.07
2019-02-22T07:48:34.100Z,64.33
2019-02-22T07:50:34.932Z,67.00
2019-02-22T07:52:35.792Z,65.33
2019-02-22T07:54:36.629Z,65.03
2019-02-22T07:56:37.460Z,62.40
2019-02-22T07:58:38.329Z,62.70
2019-02-22T08:00:39.160Z,63.53
2019-02-22T08:02:40.009Z,61.57
2019-02-22T08:04:40.874Z,65.83
2019-02-22T08:06:42.629Z,69.47
2019-02-22T08:08:43.613Z,65.03
2019-02-22T08:10:44.452Z,60.80
2019-02-22T08:12:45.285Z,67.47
2019-02-22T08:14:46.161Z,67.33
2019-02-22T08:16:46.987Z,62.73
2019-02-22T08:18:47.809Z,62.53
2019-02-22T08:20:48.649Z,64.17
2019-02-22T08:22:49.565Z,64.63
2019-02-22T08:24:50.472Z,65.33
2019-02-22T08:26:51.330Z,65.40
2019-02-22T08:28:52.152Z,63.33
2019-02-22T08:30:53.001Z,62.87
2019-02-22T08:32:53.822Z,65.47
2019-02-22T08:34:54.656Z,67.63
2019-02-22T08:36:55.805Z,65.80
2019-02-22T08:38:56.640Z,61.10
2019-02-22T08:40:57.488Z,62.83
2019-02-22T08:42:58.624Z,65.57
2019-02-22T08:44:59.461Z,61.57
2019-02-22T08:47:00.301Z,62.77
2019-02-22T08:49:01.152Z,60.80
2019-02-22T08:51:02.017Z,62.60
2019-02-22T08:53:02.951Z,63.37
2019-02-22T08:55:03.798Z,55.20
2019-02-22T08:57:04.640Z,55.77
2019-02-22T08:59:05.485Z,53.10
2019-02-22T09:01:06.322Z,51.23
2019-02-22T09:03:07.176Z,57.10
2019-02-22T09:05:08.032Z,58.10
2019-02-22T09:07:08.868Z,51.63
2019-02-22T09:09:09.724Z,53.83
2019-02-22T09:11:10.591Z,61.10
2019-02-22T09:13:11.420Z,59.70
2019-02-22T09:15:12.272Z,53.83
2019-02-22T09:17:13.097Z,51.87
2019-02-22T09:19:13.928Z,48.73
2019-02-22T09:21:14.790Z,55.40
2019-02-22T09:23:15.628Z,52.97
2019-02-22T09:25:16.480Z,46.73
2019-02-22T09:27:17.332Z,45.83
2019-02-22T09:29:18.157Z,48.23
2019-02-22T09:31:19.449Z,55.70
2019-02-22T09:33:20.268Z,55.60
2019-02-22T09:35:21.117Z,47.37
2019-02-22T09:37:21.964Z,46.33
2019-02-22T09:39:22.797Z,44.53
2019-02-22T09:41:23.645Z,39.07
2019-02-22T09:43:24.475Z,40.77
2019-02-22T09:45:25.331Z,41.27
2019-02-22T09:47:26.194Z,41.43
2019-02-22T09:49:27.333Z,38.43
2019-02-22T09:51:28.177Z,40.73
2019-02-22T09:53:29.025Z,39.70
2019-02-22T09:55:29.886Z,38.83
2019-02-22T09:57:30.716Z,36.20
2019-02-22T09:59:31.909Z,39.07
2019-02-22T10:01:32.764Z,37.17
2019-02-22T10:03:33.584Z,36.40
2019-02-22T10:05:34.415Z,36.47
2019-02-22T10:07:35.273Z,35.53
2019-02-22T10:09:36.368Z,34.90
2019-02-22T10:11:37.212Z,35.17
2019-02-22T10:13:38.067Z,35.90
2019-02-22T10:15:38.896Z,33.07
2019-02-22T10:17:39.736Z,30.77
2019-02-22T10:19:40.689Z,33.03
2019-02-22T10:21:41.528Z,31.50
2019-02-22T10:23:42.794Z,31.55
2019-02-22T10:25:43.732Z,16.47
2019-02-22T10:27:44.552Z,10.17
2019-02-22T10:29:45.384Z,25.90
2019-02-22T10:31:46.253Z,27.37
2019-02-22T10:33:47.391Z,27.13
2019-02-22T10:35:48.544Z,28.97
2019-02-22T10:37:49.415Z,24.47
2019-02-22T10:39:50.243Z,25.10
2019-02-22T10:41:51.102Z,24.10
2019-02-22T10:43:51.996Z,23.67
2019-02-22T10:45:52.949Z,23.70
2019-02-22T10:47:53.793Z,22.37
2019-02-22T10:49:54.623Z,25.10
2019-02-22T10:51:55.552Z,20.60
2019-02-22T10:53:56.474Z,21.10
2019-02-22T10:55:57.424Z,23.03
2019-02-22T10:57:58.357Z,20.97
2019-02-22T10:59:59.274Z,24.33
2019-02-22T11:02:00.228Z,20.60
2019-02-22T11:04:01.082Z,20.17
2019-02-22T11:06:01.909Z,22.97
2019-02-22T11:08:02.771Z,26.03
2019-02-22T11:10:04.668Z,22.87
2019-02-22T11:12:05.510Z,23.17
2019-02-22T11:14:06.453Z,23.27
2019-02-22T11:16:07.365Z,21.00
2019-02-22T11:18:08.209Z,20.43
2019-02-22T11:20:09.168Z,20.10
2019-02-22T11:22:10.197Z,20.37
2019-02-22T11:24:11.505Z,20.70
2019-02-22T11:26:12.388Z,19.07
2019-02-22T11:28:13.298Z,22.10
2019-02-22T11:30:14.251Z,20.97
2019-02-22T11:32:15.189Z,21.80
2019-02-22T11:34:16.100Z,18.60
2019-02-22T11:36:16.937Z,18.23
2019-02-22T11:38:18.073Z,23.67
2019-02-22T11:40:18.908Z,23.30
2019-02-22T11:42:19.749Z,20.40
2019-02-22T11:44:20.708Z,20.10
2019-02-22T11:46:21.548Z,20.00
2019-02-22T11:48:22.389Z,16.80
2019-02-22T11:50:23.559Z,18.00
2019-02-22T11:52:24.409Z,16.00
2019-02-22T11:54:25.528Z,16.23
2019-02-22T11:56:26.393Z,17.37
2019-02-22T11:58:27.345Z,15.80
2019-02-22T12:00:28.840Z,17.10
2019-02-22T12:02:29.700Z,19.07
2019-02-22T12:04:30.522Z,16.20
2019-02-22T12:06:31.376Z,18.47
2019-02-22T12:08:32.200Z,18.70
2019-02-22T12:10:33.025Z,20.33
2019-02-22T12:12:33.864Z,17.97
2019-02-22T12:14:34.985Z,18.63
2019-02-22T12:16:35.825Z,18.20
2019-02-22T12:18:36.805Z,15.03
2019-02-22T12:20:37.709Z,16.90
2019-02-22T12:22:38.550Z,17.03
2019-02-22T12:24:39.401Z,19.53
2019-02-22T12:26:40.249Z,19.50
2019-02-22T12:28:41.184Z,20.17
2019-02-22T12:30:42.021Z,19.23
2019-02-22T12:32:42.869Z,23.57
2019-02-22T12:34:43.712Z,20.33
2019-02-22T12:36:44.871Z,19.23
2019-02-22T12:38:45.700Z,17.43
2019-02-22T12:40:46.561Z,20.30
2019-02-22T12:42:47.410Z,19.93
2019-02-22T12:44:48.236Z,16.20
2019-02-22T12:46:49.201Z,13.80
2019-02-22T12:48:50.476Z,12.60
2019-02-22T12:50:51.332Z,13.50
2019-02-22T12:52:52.179Z,14.10
2019-02-22T12:54:53.193Z,13.17
2019-02-22T12:56:57.604Z,16.13
2019-02-22T12:58:56.788Z,13.77
2019-02-22T13:00:57.811Z,17.77
2019-02-22T13:03:01.961Z,12.57
2019-02-22T13:05:01.487Z,12.20
2019-02-22T13:07:02.361Z,11.97
2019-02-22T13:09:05.120Z,13.83
2019-02-22T13:11:06.208Z,12.20
2019-02-22T13:13:07.051Z,12.93
2019-02-22T13:15:14.141Z,10.77
2019-02-22T13:17:10.868Z,9.17
2019-02-22T13:19:11.818Z,12.20
2019-02-22T13:21:12.908Z,13.13
2019-02-22T13:23:13.780Z,12.80
2019-02-22T13:25:14.759Z,12.47
2019-02-22T13:27:15.608Z,14.23
2019-02-22T13:29:16.452Z,12.30
2019-02-22T13:31:17.313Z,14.73
2019-02-22T13:33:18.155Z,11.37
2019-02-22T13:35:19.000Z,13.67
2019-02-22T13:37:19.828Z,15.40
2019-02-22T13:39:20.653Z,13.77
2019-02-22T13:41:21.497Z,16.83
2019-02-22T13:43:22.422Z,13.20
2019-02-22T13:45:26.964Z,12.50
2019-02-22T13:47:26.027Z,14.10
2019-02-22T13:49:26.910Z,12.50
2019-02-22T13:51:27.812Z,13.20
2019-02-22T13:53:28.663Z,11.03
2019-02-22T13:55:29.492Z,10.87
2019-02-22T13:57:30.445Z,13.10
2019-02-22T13:59:31.640Z,11.50
2019-02-22T14:01:32.489Z,10.77
2019-02-22T14:03:33.617Z,12.80
2019-02-22T14:05:34.440Z,11.93
2019-02-22T14:07:35.304Z,12.73
2019-02-22T14:09:36.128Z,12.23
2019-02-22T14:11:37.188Z,12.63
2019-02-22T14:13:38.033Z,12.10
2019-02-22T14:15:39.257Z,10.33
2019-02-22T14:17:40.213Z,10.73
2019-02-22T14:19:41.396Z,10.70
2019-02-22T14:21:42.241Z,12.03
2019-02-22T14:23:43.383Z,9.43
2019-02-22T14:25:44.822Z,12.93
2019-02-22T14:27:46.089Z,10.07
2019-02-22T14:29:46.929Z,10.70
2019-02-22T14:31:47.756Z,8.63
2019-02-22T14:33:48.692Z,9.90
2019-02-22T14:35:49.532Z,8.80
2019-02-22T14:37:50.381Z,10.50
2019-02-22T14:40:02.362Z,9.07
2019-02-22T14:41:53.973Z,9.33
2019-02-22T14:43:55.060Z,9.00
2019-02-22T14:45:55.914Z,10.13
2019-02-22T14:47:56.744Z,9.27
2019-02-22T14:49:57.593Z,11.03
2019-02-22T14:51:58.705Z,11.47
2019-02-22T14:53:59.597Z,8.70
2019-02-22T14:56:01.625Z,8.13
2019-02-22T14:58:02.484Z,8.27
2019-02-22T15:00:04.525Z,7.80
2019-02-22T15:02:05.647Z,7.60
2019-02-22T15:04:06.486Z,10.93
2019-02-22T15:06:07.336Z,7.07
2019-02-22T15:08:08.265Z,8.23
2019-02-22T15:10:09.222Z,6.80
2019-02-22T15:12:11.991Z,6.67
2019-02-22T15:14:13.313Z,5.43
2019-02-22T15:16:32.692Z,7.60
2019-02-22T15:18:33.529Z,8.97
2019-02-22T15:20:34.768Z,6.80
2019-02-22T15:22:35.621Z,5.80
2019-02-22T15:24:36.718Z,8.07
2019-02-22T15:26:37.556Z,7.83
2019-02-22T15:28:38.393Z,7.80
2019-02-22T15:30:39.401Z,6.67
2019-02-22T15:32:40.381Z,7.43
2019-02-22T15:34:41.817Z,8.23
2019-02-22T15:36:42.681Z,6.83
2019-02-22T15:38:43.665Z,9.53
2019-02-22T15:40:44.828Z,9.20
2019-02-22T15:42:46.012Z,8.37
2019-02-22T15:44:46.925Z,12.00
2019-02-22T15:46:47.745Z,8.07
2019-02-22T15:48:48.706Z,6.70
2019-02-22T15:50:49.540Z,8.10
2019-02-22T15:52:50.607Z,7.73
2019-02-22T15:54:51.452Z,8.87
2019-02-22T15:56:52.284Z,8.67
2019-02-22T15:58:53.140Z,8.33
2019-02-22T16:00:53.990Z,7.87
2019-02-22T16:02:54.926Z,8.07
2019-02-22T16:04:59.809Z,7.57
2019-02-22T16:07:00.673Z,8.13
2019-02-22T16:09:01.625Z,7.03
2019-02-22T16:11:02.480Z,7.67
2019-02-22T16:13:03.338Z,9.07
2019-02-22T16:15:04.190Z,8.90
2019-02-22T16:17:05.341Z,11.67
2019-02-22T16:19:06.484Z,8.23
2019-02-22T16:21:07.320Z,7.73
2019-02-22T16:23:08.174Z,7.43
2019-02-22T16:25:19.168Z,9.63
2019-02-22T16:27:11.778Z,9.17
2019-02-22T16:29:12.636Z,10.63
2019-02-22T16:31:13.577Z,9.23
2019-02-22T16:33:14.404Z,6.50
2019-02-22T16:35:15.260Z,8.73
2019-02-22T16:37:16.132Z,8.97
2019-02-22T16:39:16.965Z,7.77
2019-02-22T16:41:17.828Z,6.63
2019-02-22T16:43:18.680Z,6.23
2019-02-22T16:45:19.513Z,6.23
2019-02-22T16:47:20.708Z,7.37
2019-02-22T16:49:21.545Z,8.23
2019-02-22T16:51:22.400Z,8.57
2019-02-22T16:53:23.253Z,9.77
2019-02-22T16:55:24.107Z,8.93
2019-02-22T16:57:25.005Z,10.53
2019-02-22T16:59:25.868Z,8.23
2019-02-22T17:01:26.726Z,8.23
2019-02-22T17:03:27.980Z,8.07
2019-02-22T17:05:28.847Z,6.80
2019-02-22T17:07:29.782Z,7.40
2019-02-22T17:09:33.159Z,7.50
2019-02-22T17:11:33.377Z,9.27
2019-02-22T17:13:34.212Z,9.77
2019-02-22T17:15:35.353Z,13.50
2019-02-22T17:17:36.215Z,9.30
2019-02-22T17:19:37.067Z,12.13
2019-02-22T17:21:37.916Z,11.27
2019-02-22T17:23:38.769Z,8.73
2019-02-22T17:25:39.620Z,11.10
2019-02-22T17:27:40.449Z,9.27
2019-02-22T17:29:41.286Z,9.70
2019-02-22T17:31:42.433Z,12.53
2019-02-22T17:33:43.268Z,14.13
2019-02-22T17:35:44.201Z,10.33
2019-02-22T17:37:45.159Z,7.90
2019-02-22T17:39:46.195Z,9.80
2019-02-22T17:41:47.112Z,9.87
2019-02-22T17:43:47.968Z,10.97
2019-02-22T17:45:48.800Z,10.40
2019-02-22T17:47:49.687Z,14.80
2019-02-22T17:49:50.591Z,12.93
2019-02-22T17:51:51.428Z,17.30
2019-02-22T17:53:52.270Z,11.20
2019-02-22T17:55:53.122Z,11.57
2019-02-22T17:57:53.973Z,12.23
2019-02-22T17:59:54.822Z,12.10
2019-02-22T18:01:55.768Z,17.57
2019-02-22T18:03:56.596Z,17.80
2019-02-22T18:05:57.450Z,19.27
2019-02-22T18:07:58.301Z,11.67
2019-02-22T18:09:59.142Z,15.17
2019-02-22T18:11:59.993Z,13.03
2019-02-22T18:14:00.816Z,16.20
2019-02-22T18:16:01.671Z,12.73
2019-02-22T18:18:02.613Z,13.40
2019-02-22T18:20:03.436Z,14.50
2019-02-22T18:22:04.285Z,15.50
2019-02-22T18:24:05.109Z,14.83
2019-02-22T18:26:05.962Z,16.10
2019-02-22T18:28:06.788Z,14.97
2019-02-22T18:30:07.613Z,12.80
2019-02-22T18:32:08.469Z,12.43
2019-02-22T18:34:09.300Z,13.27
2019-02-22T18:36:10.157Z,11.30
2019-02-22T18:38:11.012Z,10.47
2019-02-22T18:40:11.849Z,11.77
2019-02-22T18:42:12.700Z,13.25
2019-02-22T18:44:13.561Z,14.90
2019-02-22T18:46:14.398Z,13.60
2019-02-22T18:48:15.251Z,15.23
2019-02-22T18:50:16.660Z,15.90
2019-02-22T18:52:17.509Z,18.20
2019-02-22T18:54:18.356Z,16.33
2019-02-22T18:56:19.193Z,13.07
2019-02-22T18:58:20.050Z,19.20
2019-02-22T19:00:20.906Z,14.10
2019-02-22T19:02:22.041Z,10.17
2019-02-22T19:04:22.880Z,11.03
2019-02-22T19:06:23.733Z,12.77
2019-02-22T19:08:32.113Z,11.43
2019-02-22T19:10:27.292Z,12.17
2019-02-22T19:12:28.153Z,10.93
2019-02-22T19:14:29.011Z,12.53
2019-02-22T19:16:29.845Z,14.13
2019-02-22T19:18:30.886Z,13.00
2019-02-22T19:20:32.016Z,13.73
2019-02-22T19:22:32.876Z,15.20
2019-02-22T19:24:33.725Z,14.13
2019-02-22T19:26:34.583Z,13.57
2019-02-22T19:28:35.436Z,16.40
2019-02-22T19:30:36.268Z,12.80
2019-02-22T19:32:37.108Z,12.83
2019-02-22T19:34:37.967Z,14.27
2019-02-22T19:36:38.801Z,15.57
2019-02-22T19:38:39.908Z,15.37
2019-02-22T19:40:40.765Z,16.03
2019-02-22T19:42:41.596Z,18.87
2019-02-22T19:44:42.449Z,20.43
2019-02-22T19:46:43.572Z,18.57
2019-02-22T19:48:44.436Z,22.53
2019-02-22T19:50:45.280Z,22.53
2019-02-22T19:52:46.108Z,23.30
2019-02-22T19:54:46.977Z,22.93
2019-02-22T19:56:48.099Z,19.33
2019-02-22T19:58:48.948Z,20.00
2019-02-22T20:00:49.809Z,21.37
2019-02-22T20:02:50.643Z,20.37
2019-02-22T20:04:53.327Z,19.20
2019-02-22T20:06:54.235Z,21.33
2019-02-22T20:08:55.191Z,19.43
2019-02-22T20:10:56.044Z,19.83
2019-02-22T20:12:56.885Z,18.50
2019-02-22T20:14:57.727Z,19.67
2019-02-22T20:16:58.594Z,9.63
2019-02-22T20:18:59.429Z,16.13
2019-02-22T20:21:00.265Z,14.00
2019-02-22T20:23:01.112Z,11.47
2019-02-22T20:25:01.959Z,18.48
2019-02-22T20:27:02.822Z,19.23
2019-02-22T20:29:03.671Z,19.60
2019-02-22T20:31:04.496Z,19.27
2019-02-22T20:33:05.326Z,22.20
2019-02-22T20:35:06.177Z,20.87
2019-02-22T20:37:07.332Z,20.77
2019-02-22T20:39:08.236Z,21.07
2019-02-22T20:41:09.091Z,20.83
2019-02-22T20:43:09.925Z,23.40
2019-02-22T20:45:11.104Z,20.37
2019-02-22T20:47:12.250Z,21.77
2019-02-22T20:49:13.091Z,22.20
2019-02-22T20:51:13.933Z,22.50
2019-02-22T20:53:14.776Z,21.83
2019-02-22T20:55:15.688Z,21.50
2019-02-22T20:57:16.805Z,21.80
2019-02-22T20:59:17.702Z,21.27
2019-02-22T21:01:18.600Z,23.03
2019-02-22T21:03:19.464Z,25.17
2019-02-22T21:05:20.373Z,24.90
2019-02-22T21:07:21.329Z,22.20
2019-02-22T21:09:22.253Z,24.37
2019-02-22T21:11:23.173Z,27.10
2019-02-22T21:13:24.148Z,25.67
2019-02-22T21:15:25.432Z,25.67
2019-02-22T21:17:26.315Z,23.20
2019-02-22T21:19:27.609Z,27.33
2019-02-22T21:21:28.488Z,29.43
2019-02-22T21:23:29.416Z,28.10
2019-02-22T21:25:30.345Z,28.27
2019-02-22T21:27:31.348Z,22.17
2019-02-22T21:29:32.246Z,23.03
2019-02-22T21:31:33.168Z,29.67
2019-02-22T21:33:34.117Z,26.17
2019-02-22T21:35:35.090Z,27.33
2019-02-22T21:37:35.961Z,25.80
2019-02-22T21:39:37.708Z,25.83
2019-02-22T21:41:38.652Z,26.60
2019-02-22T21:43:39.580Z,26.60
2019-02-22T21:45:40.427Z,25.30
2019-02-22T21:47:41.500Z,29.33
2019-02-22T21:49:42.692Z,27.17
2019-02-22T21:51:43.640Z,23.53
2019-02-22T21:53:44.559Z,29.13
2019-02-22T21:55:45.545Z,25.73
2019-02-22T21:57:46.444Z,27.33
2019-02-22T21:59:47.299Z,32.33
2019-02-22T22:01:48.612Z,27.90
2019-02-22T22:03:51.303Z,27.63
2019-02-22T22:05:52.257Z,27.67
2019-02-22T22:07:53.161Z,27.37
2019-02-22T22:09:54.292Z,24.90
2019-02-22T22:11:55.407Z,25.30
2019-02-22T22:13:56.284Z,26.57
2019-02-22T22:15:57.229Z,22.57
2019-02-22T22:17:58.160Z,24.60
2019-02-22T22:19:59.464Z,23.87
2019-02-22T22:22:00.308Z,22.80
2019-02-22T22:24:01.172Z,20.60
2019-02-22T22:26:02.576Z,22.83
2019-02-22T22:28:03.429Z,23.67
2019-02-22T22:30:04.273Z,20.53
2019-02-22T22:32:05.093Z,21.33
2019-02-22T22:34:05.958Z,23.87
2019-02-22T22:36:06.789Z,24.03
2019-02-22T22:38:07.729Z,22.40
2019-02-22T22:40:08.764Z,21.30
2019-02-22T22:42:09.604Z,22.47
2019-02-22T22:44:10.456Z,20.57
2019-02-22T22:46:11.312Z,18.57
2019-02-22T22:48:12.181Z,18.17
2019-02-22T22:50:13.025Z,18.37
2019-02-22T22:52:13.848Z,17.47
2019-02-22T22:54:14.684Z,18.37
2019-02-22T22:56:15.512Z,16.53
2019-02-22T22:58:16.371Z,20.40
2019-02-22T23:00:17.424Z,20.37
2019-02-22T23:02:18.600Z,19.37
2019-02-22T23:04:19.543Z,20.73
2019-02-22T23:06:20.391Z,19.30
2019-02-22T23:08:21.249Z,18.70
2019-02-22T23:10:22.088Z,19.30
2019-02-22T23:12:22.926Z,18.27
2019-02-22T23:14:23.773Z,19.43
2019-02-22T23:16:24.636Z,19.10
2019-02-22T23:18:25.469Z,15.93
2019-02-22T23:20:26.326Z,19.10
2019-02-22T23:22:27.159Z,4.10
2019-02-22T23:24:27.988Z,13.90
2019-02-22T23:26:28.840Z,30.77
2019-02-22T23:28:29.681Z,19.10
2019-02-22T23:30:30.534Z,16.90
2019-02-22T23:32:31.704Z,16.17
2019-02-22T23:34:32.840Z,15.17
2019-02-22T23:36:33.717Z,15.17
2019-02-22T23:38:34.548Z,14.63
2019-02-22T23:40:35.378Z,15.30
2019-02-22T23:42:36.229Z,16.23
2019-02-22T23:44:37.092Z,16.53
2019-02-22T23:46:38.092Z,16.27
2019-02-22T23:48:38.930Z,16.63
2019-02-22T23:50:39.766Z,16.47
2019-02-22T23:52:40.621Z,18.40
2019-02-22T23:54:41.448Z,15.90
2019-02-22T23:56:42.286Z,14.43
2019-02-22T23:58:44.221Z,14.83
